createdAt,value
2018-07-07T00:01:34.156Z,23.72
2018-07-07T00:06:41.964Z,23.66
2018-07-07T00:09:05.430Z,23.63
2018-07-07T00:13:47.563Z,23.62
2018-07-07T00:16:25.705Z,23.59
2018-07-07T00:19:27.478Z,23.54
2018-07-07T00:21:51.543Z,23.49
2018-07-07T00:24:17.933Z,23.48
2018-07-07T00:29:48.348Z,23.42
2018-07-07T00:31:57.436Z,23.41
2018-07-07T00:34:02.900Z,23.44
2018-07-07T00:36:08.458Z,23.44
2018-07-07T00:38:13.787Z,23.46
2018-07-07T00:40:19.240Z,23.46
2018-07-07T00:42:24.575Z,23.45
2018-07-07T00:44:30.184Z,23.42
2018-07-07T00:46:35.478Z,23.37
2018-07-07T00:48:40.872Z,23.31
2018-07-07T00:50:46.673Z,23.26
2018-07-07T00:52:52.533Z,23.22
2018-07-07T00:54:58.300Z,23.21
2018-07-07T00:57:03.964Z,23.19
2018-07-07T00:59:09.731Z,23.17
2018-07-07T01:01:15.000Z,23.16
2018-07-07T01:03:20.896Z,23.17
2018-07-07T01:05:36.204Z,23.20
2018-07-07T01:07:42.014Z,23.19
2018-07-07T01:09:47.570Z,23.19
2018-07-07T01:11:52.916Z,23.20
2018-07-07T01:13:58.233Z,23.20
2018-07-07T01:16:03.567Z,23.23
2018-07-07T01:18:09.214Z,23.22
2018-07-07T01:20:14.542Z,23.19
2018-07-07T01:22:20.209Z,23.14
2018-07-07T01:24:25.670Z,23.10
2018-07-07T01:26:30.681Z,23.05
2018-07-07T01:28:35.571Z,23.02
2018-07-07T01:30:40.830Z,22.99
2018-07-07T01:32:46.085Z,22.95
2018-07-07T01:34:51.110Z,22.90
2018-07-07T01:36:56.670Z,22.83
2018-07-07T01:39:02.495Z,22.71
2018-07-07T01:41:08.246Z,22.61
2018-07-07T01:43:13.889Z,22.50
2018-07-07T01:45:19.486Z,22.46
2018-07-07T01:47:25.149Z,22.47
2018-07-07T01:49:30.952Z,22.45
2018-07-07T01:51:36.595Z,22.45
2018-07-07T01:53:41.913Z,22.44
2018-07-07T01:55:47.534Z,22.46
2018-07-07T01:57:53.222Z,22.49
2018-07-07T01:59:58.224Z,22.56
2018-07-07T02:02:03.167Z,22.62
2018-07-07T02:04:08.111Z,22.64
2018-07-07T02:06:13.368Z,22.65
2018-07-07T02:08:18.681Z,22.69
2018-07-07T02:10:24.023Z,22.73
2018-07-07T02:12:29.357Z,22.76
2018-07-07T02:14:34.628Z,22.73
2018-07-07T02:16:40.044Z,22.74
2018-07-07T02:18:45.417Z,22.75
2018-07-07T02:20:50.709Z,22.76
2018-07-07T02:22:56.038Z,22.76
2018-07-07T02:25:01.015Z,22.75
2018-07-07T02:27:06.263Z,22.75
2018-07-07T02:29:11.576Z,22.79
2018-07-07T02:31:16.902Z,22.80
2018-07-07T02:33:22.279Z,22.81
2018-07-07T02:35:28.051Z,22.82
2018-07-07T02:37:33.693Z,22.81
2018-07-07T02:39:39.365Z,22.81
2018-07-07T02:41:44.697Z,22.78
2018-07-07T02:43:50.347Z,22.75
2018-07-07T02:45:56.270Z,22.75
2018-07-07T02:48:01.383Z,22.70
2018-07-07T02:50:06.612Z,22.70
2018-07-07T02:52:11.930Z,22.71
2018-07-07T02:54:17.269Z,22.68
2018-07-07T02:56:22.599Z,22.65
2018-07-07T02:58:27.932Z,22.65
2018-07-07T03:00:33.245Z,22.64
2018-07-07T03:04:42.386Z,22.63
2018-07-07T03:06:47.692Z,22.63
2018-07-07T03:08:53.037Z,22.62
2018-07-07T03:10:58.375Z,22.59
2018-07-07T03:13:03.713Z,22.56
2018-07-07T03:15:09.012Z,22.57
2018-07-07T03:17:14.434Z,22.56
2018-07-07T03:19:19.710Z,22.50
2018-07-07T03:21:25.183Z,22.45
2018-07-07T03:23:30.498Z,22.42
2018-07-07T03:25:35.870Z,22.38
2018-07-07T03:27:42.154Z,22.35
2018-07-07T03:29:47.429Z,22.29
2018-07-07T03:31:52.797Z,22.26
2018-07-07T03:33:58.151Z,22.24
2018-07-07T03:36:03.877Z,22.20
2018-07-07T03:38:09.262Z,22.17
2018-07-07T03:40:14.602Z,22.15
2018-07-07T03:42:20.009Z,22.14
2018-07-07T03:44:25.271Z,22.15
2018-07-07T03:46:32.340Z,22.16
2018-07-07T03:48:37.817Z,22.15
2018-07-07T03:50:43.449Z,22.13
2018-07-07T03:52:48.845Z,22.11
2018-07-07T03:54:54.330Z,22.10
2018-07-07T03:56:59.476Z,22.09
2018-07-07T03:59:04.992Z,22.06
2018-07-07T04:01:10.560Z,22.06
2018-07-07T04:03:16.158Z,22.05
2018-07-07T04:05:21.740Z,22.03
2018-07-07T04:07:27.353Z,22.02
2018-07-07T04:09:33.413Z,22.00
2018-07-07T04:11:39.013Z,21.99
2018-07-07T04:13:44.630Z,22.00
2018-07-07T04:15:50.360Z,21.98
2018-07-07T04:17:55.707Z,21.95
2018-07-07T04:20:01.259Z,21.90
2018-07-07T04:22:06.942Z,21.87
2018-07-07T04:24:12.532Z,21.86
2018-07-07T04:26:18.048Z,21.86
2018-07-07T04:28:23.673Z,21.87
2018-07-07T04:30:29.273Z,21.89
2018-07-07T04:32:34.869Z,21.88
2018-07-07T04:34:40.578Z,21.88
2018-07-07T04:36:46.290Z,21.93
2018-07-07T04:38:51.863Z,22.00
2018-07-07T04:40:57.593Z,22.03
2018-07-07T04:43:02.890Z,22.12
2018-07-07T04:45:08.740Z,22.16
2018-07-07T04:47:14.290Z,22.23
2018-07-07T04:49:19.813Z,22.30
2018-07-07T04:51:25.562Z,22.35
2018-07-07T04:53:31.185Z,22.41
2018-07-07T04:55:36.823Z,22.47
2018-07-07T04:57:42.461Z,22.55
2018-07-07T05:01:52.504Z,22.66
2018-07-07T05:03:58.230Z,22.72
2018-07-07T05:06:04.020Z,22.74
2018-07-07T05:08:09.362Z,22.78
2018-07-07T05:10:15.562Z,22.83
2018-07-07T05:12:20.881Z,22.88
2018-07-07T05:14:26.583Z,22.93
2018-07-07T05:16:32.532Z,23.01
2018-07-07T05:18:38.374Z,23.08
2018-07-07T05:20:44.037Z,23.13
2018-07-07T05:22:49.738Z,23.18
2018-07-07T05:24:55.091Z,23.25
2018-07-07T05:27:00.502Z,23.30
2018-07-07T05:29:05.547Z,23.35
2018-07-07T05:31:10.775Z,23.38
2018-07-07T05:33:16.265Z,23.42
2018-07-07T05:35:21.623Z,23.51
2018-07-07T05:37:26.951Z,23.59
2018-07-07T05:39:32.320Z,23.65
2018-07-07T05:41:38.224Z,23.68
2018-07-07T05:43:43.887Z,23.71
2018-07-07T05:45:49.188Z,23.75
2018-07-07T05:47:54.726Z,23.78
2018-07-07T05:50:00.465Z,23.79
2018-07-07T05:52:06.118Z,23.83
2018-07-07T05:54:11.871Z,23.90
2018-07-07T05:56:17.513Z,23.92
2018-07-07T05:58:22.785Z,23.98
2018-07-07T06:00:28.216Z,24.04
2018-07-07T06:02:33.784Z,24.08
2018-07-07T06:04:39.491Z,24.16
2018-07-07T06:06:45.075Z,24.20
2018-07-07T06:08:50.660Z,24.24
2018-07-07T06:10:56.194Z,24.32
2018-07-07T06:13:01.809Z,24.42
2018-07-07T06:15:08.503Z,24.62
2018-07-07T06:17:13.800Z,24.98
2018-07-07T06:19:19.510Z,25.40
2018-07-07T06:21:25.101Z,25.82
2018-07-07T06:23:30.804Z,26.28
2018-07-07T06:25:36.436Z,26.76
2018-07-07T06:27:42.064Z,27.18
2018-07-07T06:29:47.647Z,27.57
2018-07-07T06:31:52.955Z,27.89
2018-07-07T06:33:58.303Z,28.19
2018-07-07T06:36:03.728Z,28.48
2018-07-07T06:38:09.233Z,28.75
2018-07-07T06:40:14.736Z,29.06
2018-07-07T06:42:20.423Z,29.39
2018-07-07T06:44:26.043Z,29.67
2018-07-07T06:46:31.449Z,29.88
2018-07-07T06:48:37.162Z,30.03
2018-07-07T06:50:42.835Z,30.23
2018-07-07T06:52:48.504Z,30.43
2018-07-07T06:54:54.099Z,30.51
2018-07-07T06:56:59.714Z,30.57
2018-07-07T06:59:05.078Z,30.69
2018-07-07T07:01:10.427Z,30.76
2018-07-07T07:03:15.772Z,30.81
2018-07-07T07:05:21.092Z,30.85
2018-07-07T07:07:26.554Z,30.85
2018-07-07T07:09:32.130Z,30.98
2018-07-07T07:11:37.403Z,31.15
2018-07-07T07:13:42.994Z,31.17
2018-07-07T07:15:48.577Z,31.28
2018-07-07T07:17:54.145Z,31.35
2018-07-07T07:19:59.858Z,31.53
2018-07-07T07:22:05.478Z,31.72
2018-07-07T07:24:11.150Z,32.00
2018-07-07T07:26:16.816Z,32.32
2018-07-07T07:28:22.347Z,32.56
2018-07-07T07:30:28.040Z,32.74
2018-07-07T07:32:33.518Z,32.87
2018-07-07T07:34:39.153Z,32.84
2018-07-07T07:36:48.013Z,32.71
2018-07-07T07:38:54.376Z,32.52
2018-07-07T07:41:00.298Z,32.35
2018-07-07T07:43:05.634Z,32.28
2018-07-07T07:45:11.069Z,32.38
2018-07-07T07:47:16.548Z,32.45
2018-07-07T07:49:22.147Z,32.59
2018-07-07T07:51:28.062Z,32.78
2018-07-07T07:53:33.705Z,32.91
2018-07-07T07:55:39.455Z,32.92
2018-07-07T07:57:45.085Z,32.85
2018-07-07T07:59:50.597Z,32.71
2018-07-07T08:01:56.057Z,32.55
2018-07-07T08:04:01.237Z,32.29
2018-07-07T08:06:06.879Z,31.98
2018-07-07T08:08:12.606Z,31.77
2018-07-07T08:10:18.019Z,31.61
2018-07-07T08:12:23.451Z,31.48
2018-07-07T08:14:28.768Z,31.25
2018-07-07T08:16:34.404Z,31.00
2018-07-07T08:18:40.076Z,30.81
2018-07-07T08:20:45.829Z,30.66
2018-07-07T08:22:51.648Z,30.65
2018-07-07T08:24:57.321Z,30.69
2018-07-07T08:27:03.216Z,30.72
2018-07-07T08:29:11.234Z,30.67
2018-07-07T08:31:17.762Z,30.58
2018-07-07T08:33:24.501Z,30.49
2018-07-07T08:35:30.545Z,30.44
2018-07-07T08:37:39.193Z,30.42
2018-07-07T08:39:44.786Z,30.41
2018-07-07T08:41:50.630Z,30.42
2018-07-07T08:43:56.438Z,30.40
2018-07-07T08:46:01.714Z,30.42
2018-07-07T08:48:07.500Z,30.39
2018-07-07T08:50:13.259Z,30.40
2018-07-07T08:52:18.818Z,30.35
2018-07-07T08:54:24.319Z,30.35
2018-07-07T08:56:29.896Z,30.39
2018-07-07T08:58:35.584Z,30.35
2018-07-07T09:00:41.194Z,30.31
2018-07-07T09:02:46.853Z,30.31
2018-07-07T09:04:52.396Z,30.40
2018-07-07T09:06:57.970Z,30.50
2018-07-07T09:09:03.678Z,30.59
2018-07-07T09:11:09.811Z,30.59
2018-07-07T09:13:15.448Z,30.61
2018-07-07T09:15:20.626Z,30.60
2018-07-07T09:17:26.212Z,30.55
2018-07-07T09:19:32.013Z,30.52
2018-07-07T09:21:37.681Z,30.52
2018-07-07T09:23:43.232Z,30.49
2018-07-07T09:25:48.742Z,30.49
2018-07-07T09:27:54.371Z,30.51
2018-07-07T09:30:00.134Z,30.53
2018-07-07T09:32:05.839Z,30.50
2018-07-07T09:34:11.479Z,30.47
2018-07-07T09:36:17.434Z,30.51
2018-07-07T09:38:23.032Z,30.57
2018-07-07T09:40:28.595Z,30.53
2018-07-07T09:42:34.289Z,30.46
2018-07-07T09:44:39.883Z,30.46
2018-07-07T09:46:45.505Z,30.51
2018-07-07T09:48:51.054Z,30.57
2018-07-07T09:50:56.494Z,30.61
2018-07-07T09:53:01.904Z,30.67
2018-07-07T09:55:07.347Z,30.75
2018-07-07T09:57:12.715Z,30.75
2018-07-07T09:59:18.088Z,30.74
2018-07-07T10:01:23.443Z,30.81
2018-07-07T10:03:28.814Z,30.84
2018-07-07T10:05:34.332Z,30.80
2018-07-07T10:07:39.741Z,30.81
2018-07-07T10:09:45.154Z,30.80
2018-07-07T10:11:50.711Z,30.80
2018-07-07T10:13:55.724Z,30.83
2018-07-07T10:16:00.635Z,30.82
2018-07-07T10:18:06.184Z,30.78
2018-07-07T10:20:11.528Z,30.75
2018-07-07T10:22:16.904Z,30.73
2018-07-07T10:24:22.224Z,30.75
2018-07-07T10:26:27.614Z,30.71
2018-07-07T10:28:32.983Z,30.70
2018-07-07T10:30:38.325Z,30.66
2018-07-07T10:32:43.927Z,30.55
2018-07-07T10:34:49.316Z,30.44
2018-07-07T10:36:54.335Z,30.34
2018-07-07T10:38:59.682Z,30.27
2018-07-07T10:41:05.040Z,30.24
2018-07-07T10:43:10.524Z,30.29
2018-07-07T10:45:16.521Z,30.34
2018-07-07T10:47:21.922Z,30.43
2018-07-07T10:49:27.471Z,30.44
2018-07-07T10:51:32.810Z,30.40
2018-07-07T10:53:38.119Z,30.38
2018-07-07T10:55:43.455Z,30.38
2018-07-07T10:57:48.898Z,30.35
2018-07-07T10:59:54.316Z,30.40
2018-07-07T11:01:59.756Z,30.43
2018-07-07T11:04:05.161Z,30.40
2018-07-07T11:06:10.541Z,30.43
2018-07-07T11:08:15.939Z,30.49
2018-07-07T11:10:21.284Z,30.53
2018-07-07T11:12:26.717Z,30.55
2018-07-07T11:14:32.088Z,30.56
2018-07-07T11:16:37.485Z,30.57
2018-07-07T11:18:43.183Z,30.60
2018-07-07T11:20:48.563Z,30.65
2018-07-07T11:22:54.363Z,30.64
2018-07-07T11:24:59.738Z,30.70
2018-07-07T11:27:05.200Z,30.83
2018-07-07T11:29:10.599Z,30.94
2018-07-07T11:31:15.992Z,31.01
2018-07-07T11:33:21.377Z,31.01
2018-07-07T11:35:26.779Z,31.04
2018-07-07T11:37:32.312Z,31.09
2018-07-07T11:39:37.705Z,31.10
2018-07-07T11:41:43.117Z,31.14
2018-07-07T11:43:48.488Z,31.16
2018-07-07T11:45:53.519Z,31.22
2018-07-07T11:47:58.778Z,31.30
2018-07-07T11:50:04.455Z,31.41
2018-07-07T11:52:09.887Z,31.46
2018-07-07T11:54:15.517Z,31.47
2018-07-07T11:56:20.885Z,31.46
2018-07-07T11:58:26.254Z,31.48
2018-07-07T12:00:31.649Z,31.50
2018-07-07T12:02:37.058Z,31.51
2018-07-07T12:04:42.867Z,31.57
2018-07-07T12:06:48.142Z,31.59
2018-07-07T12:08:53.323Z,31.62
2018-07-07T12:10:58.566Z,31.63
2018-07-07T12:13:03.915Z,31.66
2018-07-07T12:15:09.348Z,31.72
2018-07-07T12:17:14.728Z,31.78
2018-07-07T12:19:20.168Z,31.85
2018-07-07T12:21:25.556Z,31.88
2018-07-07T12:23:30.942Z,31.87
2018-07-07T12:25:36.361Z,31.84
2018-07-07T12:27:41.769Z,31.81
2018-07-07T12:29:47.213Z,31.79
2018-07-07T12:31:52.737Z,31.74
2018-07-07T12:33:58.133Z,31.63
2018-07-07T12:36:03.515Z,31.60
2018-07-07T12:38:08.990Z,31.65
2018-07-07T12:40:14.313Z,31.74
2018-07-07T12:42:20.056Z,31.86
2018-07-07T12:44:25.432Z,31.92
2018-07-07T12:46:31.053Z,31.91
2018-07-07T12:48:36.501Z,31.90
2018-07-07T12:50:41.913Z,31.93
2018-07-07T12:52:47.337Z,31.90
2018-07-07T12:54:52.716Z,31.88
2018-07-07T12:56:58.035Z,31.88
2018-07-07T12:59:04.215Z,31.90
2018-07-07T13:01:09.625Z,31.93
2018-07-07T13:03:14.978Z,31.94
2018-07-07T13:05:20.373Z,32.00
2018-07-07T13:07:25.769Z,32.06
2018-07-07T13:09:31.144Z,32.11
2018-07-07T13:11:36.860Z,32.18
2018-07-07T13:13:42.406Z,32.24
2018-07-07T13:15:47.758Z,32.30
2018-07-07T13:17:53.113Z,32.39
2018-07-07T13:19:58.483Z,32.40
2018-07-07T13:22:03.864Z,32.44
2018-07-07T13:24:09.308Z,32.53
2018-07-07T13:26:14.702Z,32.52
2018-07-07T13:28:20.048Z,32.50
2018-07-07T13:30:25.393Z,32.46
2018-07-07T13:32:30.852Z,32.47
2018-07-07T13:34:36.304Z,32.52
2018-07-07T13:36:41.704Z,32.57
2018-07-07T13:38:47.135Z,32.61
2018-07-07T13:40:52.463Z,32.63
2018-07-07T13:42:57.846Z,32.64
2018-07-07T13:45:03.518Z,32.64
2018-07-07T13:47:09.390Z,32.67
2018-07-07T13:49:14.776Z,32.71
2018-07-07T13:51:20.151Z,32.72
2018-07-07T13:53:25.661Z,32.71
2018-07-07T13:55:33.919Z,32.73
2018-07-07T13:57:39.377Z,32.77
2018-07-07T13:59:44.728Z,32.83
2018-07-07T14:01:50.045Z,32.83
2018-07-07T14:03:55.511Z,32.77
2018-07-07T14:06:00.804Z,32.66
2018-07-07T14:08:06.220Z,32.58
2018-07-07T14:10:11.631Z,32.53
2018-07-07T14:12:17.046Z,32.51
2018-07-07T14:14:22.468Z,32.53
2018-07-07T14:16:27.850Z,32.57
2018-07-07T14:18:33.269Z,32.65
2018-07-07T14:20:38.691Z,32.72
2018-07-07T14:22:44.059Z,32.76
2018-07-07T14:24:49.450Z,32.83
2018-07-07T14:26:54.788Z,32.85
2018-07-07T14:29:00.085Z,32.87
2018-07-07T14:31:12.057Z,32.92
2018-07-07T14:33:17.413Z,32.91
2018-07-07T14:35:22.977Z,32.94
2018-07-07T14:37:28.369Z,32.97
2018-07-07T14:39:56.098Z,32.99
2018-07-07T14:42:24.551Z,33.04
2018-07-07T14:44:29.867Z,33.01
2018-07-07T14:46:35.993Z,32.96
2018-07-07T14:48:41.392Z,32.93
2018-07-07T14:50:46.844Z,32.91
2018-07-07T14:52:52.327Z,32.93
2018-07-07T14:54:57.667Z,32.96
2018-07-07T14:57:03.076Z,33.00
2018-07-07T14:59:08.529Z,33.06
2018-07-07T15:01:13.925Z,33.09
2018-07-07T15:03:19.290Z,33.12
2018-07-07T15:05:24.704Z,33.17
2018-07-07T15:07:30.109Z,33.21
2018-07-07T15:09:35.474Z,33.19
2018-07-07T15:11:41.665Z,33.14
2018-07-07T15:13:48.346Z,33.05
2018-07-07T15:16:19.129Z,32.94
2018-07-07T15:18:26.553Z,32.93
2018-07-07T15:20:31.994Z,32.93
2018-07-07T15:22:37.509Z,32.92
2018-07-07T15:24:43.100Z,32.89
2018-07-07T15:26:48.503Z,32.82
2018-07-07T15:28:54.086Z,32.71
2018-07-07T15:30:59.477Z,32.56
2018-07-07T15:33:05.036Z,32.38
2018-07-07T15:35:10.491Z,32.25
2018-07-07T15:37:15.905Z,32.14
2018-07-07T15:39:21.287Z,32.06
2018-07-07T15:41:26.651Z,32.01
2018-07-07T15:43:32.109Z,31.94
2018-07-07T15:45:37.486Z,31.89
2018-07-07T15:47:42.885Z,31.85
2018-07-07T15:49:48.293Z,31.85
2018-07-07T15:51:53.712Z,31.87
2018-07-07T15:53:59.129Z,31.93
2018-07-07T15:56:04.543Z,32.00
2018-07-07T15:58:10.005Z,32.10
2018-07-07T16:00:15.539Z,32.19
2018-07-07T16:02:21.039Z,32.22
2018-07-07T16:04:26.472Z,32.21
2018-07-07T16:06:31.939Z,32.21
2018-07-07T16:08:37.445Z,32.22
2018-07-07T16:10:42.938Z,32.26
2018-07-07T16:12:48.297Z,32.30
2018-07-07T16:14:53.778Z,32.31
2018-07-07T16:16:59.169Z,32.29
2018-07-07T16:19:04.718Z,32.24
2018-07-07T16:21:10.121Z,32.22
2018-07-07T16:23:15.596Z,32.16
2018-07-07T16:25:21.027Z,32.09
2018-07-07T16:27:26.440Z,32.05
2018-07-07T16:29:31.867Z,32.04
2018-07-07T16:31:37.263Z,32.00
2018-07-07T16:33:43.310Z,31.94
2018-07-07T16:35:48.382Z,31.91
2018-07-07T16:37:53.706Z,31.86
2018-07-07T16:39:59.362Z,31.79
2018-07-07T16:42:04.826Z,31.72
2018-07-07T16:44:10.277Z,31.66
2018-07-07T16:46:15.750Z,31.62
2018-07-07T16:48:21.436Z,31.60
2018-07-07T16:50:26.810Z,31.62
2018-07-07T16:52:32.205Z,31.63
2018-07-07T16:54:38.244Z,31.65
2018-07-07T16:56:43.263Z,31.71
2018-07-07T16:58:51.802Z,31.75
2018-07-07T17:00:59.910Z,31.76
2018-07-07T17:03:06.244Z,31.77
2018-07-07T17:05:11.776Z,31.83
2018-07-07T17:07:17.302Z,31.87
2018-07-07T17:09:22.891Z,31.89
2018-07-07T17:11:28.462Z,31.90
2018-07-07T17:13:33.999Z,31.90
2018-07-07T17:15:39.426Z,31.91
2018-07-07T17:17:45.622Z,31.96
2018-07-07T17:19:50.999Z,31.99
2018-07-07T17:21:56.477Z,32.01
2018-07-07T17:24:02.284Z,32.03
2018-07-07T17:26:08.167Z,32.00
2018-07-07T17:28:14.107Z,31.96
2018-07-07T17:30:21.269Z,31.92
2018-07-07T17:32:26.691Z,31.87
2018-07-07T17:34:32.180Z,31.88
2018-07-07T17:36:37.948Z,31.89
2018-07-07T17:38:43.627Z,31.88
2018-07-07T17:40:48.744Z,31.86
2018-07-07T17:42:54.081Z,31.82
2018-07-07T17:45:01.044Z,31.80
2018-07-07T17:47:06.659Z,31.77
2018-07-07T17:49:12.071Z,31.70
2018-07-07T17:51:17.864Z,31.66
2018-07-07T17:53:23.488Z,31.63
2018-07-07T17:55:29.196Z,31.59
2018-07-07T17:57:35.262Z,31.55
2018-07-07T17:59:40.880Z,31.49
2018-07-07T18:01:46.464Z,31.41
2018-07-07T18:03:52.606Z,31.32
2018-07-07T18:05:58.008Z,31.26
2018-07-07T18:08:03.360Z,31.18
2018-07-07T18:10:08.918Z,31.13
2018-07-07T18:12:14.400Z,31.08
2018-07-07T18:14:19.980Z,31.03
2018-07-07T18:16:25.600Z,30.99
2018-07-07T18:18:31.131Z,30.93
2018-07-07T18:20:36.780Z,30.88
2018-07-07T18:22:42.479Z,30.81
2018-07-07T18:24:48.001Z,30.75
2018-07-07T18:26:53.517Z,30.66
2018-07-07T18:28:58.955Z,30.60
2018-07-07T18:31:04.449Z,30.49
2018-07-07T18:33:09.812Z,30.46
2018-07-07T18:35:15.329Z,30.40
2018-07-07T18:37:20.954Z,30.37
2018-07-07T18:39:26.052Z,30.30
2018-07-07T18:41:31.366Z,30.24
2018-07-07T18:43:36.711Z,30.17
2018-07-07T18:45:42.249Z,30.12
2018-07-07T18:47:47.847Z,30.11
2018-07-07T18:49:52.926Z,30.06
2018-07-07T18:51:58.232Z,30.01
2018-07-07T18:54:03.735Z,29.96
2018-07-07T18:56:09.341Z,29.90
2018-07-07T18:58:14.853Z,29.83
2018-07-07T19:00:20.357Z,29.77
2018-07-07T19:02:25.952Z,29.72
2018-07-07T19:04:31.479Z,29.67
2018-07-07T19:06:37.093Z,29.60
2018-07-07T19:08:42.252Z,29.57
2018-07-07T19:10:47.748Z,29.53
2018-07-07T19:12:53.295Z,29.51
2018-07-07T19:15:03.907Z,29.51
2018-07-07T19:17:09.383Z,29.47
2018-07-07T19:19:15.055Z,29.45
2018-07-07T19:23:27.628Z,29.45
2018-07-07T19:25:38.446Z,29.36
2018-07-07T19:27:43.968Z,29.37
2018-07-07T19:29:49.417Z,29.39
2018-07-07T19:32:00.130Z,29.40
2018-07-07T19:34:10.614Z,29.40
2018-07-07T19:36:21.254Z,29.40
2018-07-07T19:38:26.675Z,29.40
2018-07-07T19:40:35.172Z,29.40
2018-07-07T19:42:40.581Z,29.39
2018-07-07T19:44:46.084Z,29.39
2018-07-07T19:46:51.614Z,29.41
2018-07-07T19:48:57.039Z,29.44
2018-07-07T19:51:02.453Z,29.47
2018-07-07T19:53:08.006Z,29.48
2018-07-07T19:55:13.435Z,29.46
2018-07-07T19:57:18.781Z,29.44
2018-07-07T19:59:24.299Z,29.44
2018-07-07T20:01:29.895Z,29.42
2018-07-07T20:03:35.428Z,29.39
2018-07-07T20:05:40.913Z,29.36
2018-07-07T20:07:46.629Z,29.30
2018-07-07T20:09:52.020Z,29.23
2018-07-07T20:11:57.200Z,29.19
2018-07-07T20:14:02.851Z,29.17
2018-07-07T20:16:11.833Z,29.13
2018-07-07T20:18:17.568Z,29.06
2018-07-07T20:20:34.764Z,29.02
2018-07-07T20:22:40.246Z,28.95
2018-07-07T20:24:46.012Z,28.89
2018-07-07T20:26:56.585Z,28.76
2018-07-07T20:29:01.988Z,28.67
2018-07-07T20:31:07.436Z,28.60
2018-07-07T20:33:12.899Z,28.55
2018-07-07T20:35:18.489Z,28.51
2018-07-07T20:37:23.885Z,28.46
2018-07-07T20:39:29.392Z,28.44
2018-07-07T20:41:34.787Z,28.41
2018-07-07T20:43:40.176Z,28.38
2018-07-07T20:45:45.912Z,28.39
2018-07-07T20:47:51.403Z,28.37
2018-07-07T20:49:56.891Z,28.34
2018-07-07T20:52:02.405Z,28.31
2018-07-07T20:54:07.917Z,28.29
2018-07-07T20:56:13.351Z,28.26
2018-07-07T20:58:18.724Z,28.22
2018-07-07T21:00:24.139Z,28.20
2018-07-07T21:02:29.640Z,28.17
2018-07-07T21:04:35.081Z,28.15
2018-07-07T21:06:40.516Z,28.12
2018-07-07T21:08:45.912Z,28.09
2018-07-07T21:10:51.402Z,28.04
2018-07-07T21:12:56.879Z,28.02
2018-07-07T21:15:02.305Z,27.98
2018-07-07T21:17:07.696Z,27.93
2018-07-07T21:19:13.198Z,27.89
2018-07-07T21:21:18.850Z,27.83
2018-07-07T21:23:24.461Z,27.79
2018-07-07T21:25:29.909Z,27.74
2018-07-07T21:27:35.370Z,27.71
2018-07-07T21:29:40.913Z,27.67
2018-07-07T21:31:46.347Z,27.63
2018-07-07T21:33:51.808Z,27.62
2018-07-07T21:35:57.301Z,27.61
2018-07-07T21:38:02.729Z,27.60
2018-07-07T21:40:08.390Z,27.58
2018-07-07T21:42:13.826Z,27.53
2018-07-07T21:44:19.330Z,27.48
2018-07-07T21:46:24.733Z,27.45
2018-07-07T21:48:30.252Z,27.40
2018-07-07T21:50:35.644Z,27.35
2018-07-07T21:52:41.060Z,27.29
2018-07-07T21:54:46.605Z,27.24
2018-07-07T21:56:55.126Z,27.21
2018-07-07T21:59:05.958Z,27.18
2018-07-07T22:01:32.418Z,27.14
2018-07-07T22:03:43.099Z,27.08
2018-07-07T22:05:53.652Z,27.01
2018-07-07T22:07:59.045Z,26.95
2018-07-07T22:10:04.458Z,26.89
2018-07-07T22:12:09.862Z,26.86
2018-07-07T22:14:15.259Z,26.84
2018-07-07T22:16:20.761Z,26.81
2018-07-07T22:18:26.369Z,26.80
2018-07-07T22:20:34.704Z,26.78
2018-07-07T22:22:40.167Z,26.72
2018-07-07T22:24:46.158Z,26.67
2018-07-07T22:26:56.164Z,26.60
2018-07-07T22:29:01.639Z,26.54
2018-07-07T22:31:07.117Z,26.49
2018-07-07T22:33:30.770Z,26.43
2018-07-07T22:35:41.329Z,26.37
2018-07-07T22:37:46.415Z,26.34
2018-07-07T22:39:51.801Z,26.30
2018-07-07T22:41:58.294Z,26.29
2018-07-07T22:44:03.698Z,26.28
2018-07-07T22:46:09.099Z,26.24
2018-07-07T22:48:14.468Z,26.20
2018-07-07T22:50:19.882Z,26.18
2018-07-07T22:52:25.292Z,26.14
2018-07-07T22:54:30.814Z,26.13
2018-07-07T22:56:36.240Z,26.11
2018-07-07T22:58:41.608Z,26.10
2018-07-07T23:00:46.948Z,26.07
2018-07-07T23:02:52.373Z,26.01
2018-07-07T23:04:57.781Z,25.95
2018-07-07T23:07:03.146Z,25.90
2018-07-07T23:09:09.961Z,25.89
2018-07-07T23:11:15.283Z,25.86
2018-07-07T23:13:20.635Z,25.89
2018-07-07T23:15:26.010Z,25.88
2018-07-07T23:17:31.389Z,25.85
2018-07-07T23:19:36.889Z,25.81
2018-07-07T23:21:42.305Z,25.78
2018-07-07T23:23:47.649Z,25.75
2018-07-07T23:25:52.964Z,25.72
2018-07-07T23:27:58.362Z,25.68
2018-07-07T23:30:03.785Z,25.61
2018-07-07T23:32:09.091Z,25.49
2018-07-07T23:34:14.434Z,25.40
2018-07-07T23:36:19.991Z,25.30
2018-07-07T23:38:25.544Z,25.23
2018-07-07T23:40:31.057Z,25.21
2018-07-07T23:42:36.708Z,25.23
2018-07-07T23:44:42.162Z,25.23
2018-07-07T23:46:47.625Z,25.24
2018-07-07T23:48:52.983Z,25.25
2018-07-07T23:50:58.429Z,25.26
2018-07-07T23:53:03.915Z,25.24
2018-07-07T23:55:09.342Z,25.18
2018-07-07T23:57:14.840Z,25.14
2018-07-07T23:59:20.263Z,25.11
